createdAt,value
2017-10-25T00:00:37.682Z,964.87
2017-10-25T00:02:31.056Z,964.88
2017-10-25T00:03:31.083Z,964.92
2017-10-25T00:05:24.532Z,964.95
2017-10-25T00:06:24.484Z,964.97
2017-10-25T00:08:17.910Z,964.95
2017-10-25T00:09:17.895Z,964.97
2017-10-25T00:11:11.279Z,964.96
2017-10-25T00:12:11.295Z,964.98
2017-10-25T00:14:05.707Z,965.00
2017-10-25T00:15:05.670Z,964.98
2017-10-25T00:16:59.077Z,964.95
2017-10-25T00:17:59.094Z,964.93
2017-10-25T00:19:53.429Z,964.94
2017-10-25T00:20:53.465Z,964.92
2017-10-25T00:22:46.858Z,964.95
2017-10-25T00:23:46.850Z,964.97
2017-10-25T00:25:40.202Z,964.96
2017-10-25T00:26:40.249Z,964.97
2017-10-25T00:28:33.681Z,964.95
2017-10-25T00:29:33.664Z,964.95
2017-10-25T00:31:27.018Z,964.94
2017-10-25T00:32:27.072Z,964.92
2017-10-25T00:34:20.477Z,964.89
2017-10-25T00:35:20.443Z,964.87
2017-10-25T00:37:13.833Z,964.91
2017-10-25T00:38:13.866Z,964.85
2017-10-25T00:40:07.236Z,964.86
2017-10-25T00:41:07.214Z,964.85
2017-10-25T00:43:00.605Z,964.86
2017-10-25T00:44:00.600Z,964.84
2017-10-25T00:45:54.022Z,964.83
2017-10-25T00:46:54.025Z,964.87
2017-10-25T00:48:47.433Z,964.89
2017-10-25T00:49:47.436Z,964.87
2017-10-25T00:51:40.865Z,964.87
2017-10-25T00:52:40.827Z,964.86
2017-10-25T00:54:34.203Z,964.88
2017-10-25T00:55:34.242Z,964.82
2017-10-25T00:57:27.663Z,964.81
2017-10-25T00:58:27.651Z,964.81
2017-10-25T01:00:21.020Z,964.79
2017-10-25T01:01:21.025Z,964.75
2017-10-25T01:03:14.460Z,964.75
2017-10-25T01:04:14.439Z,964.75
2017-10-25T01:06:07.861Z,964.71
2017-10-25T01:07:07.796Z,964.70
2017-10-25T01:09:01.221Z,964.71
2017-10-25T01:10:01.199Z,964.68
2017-10-25T01:11:54.739Z,964.68
2017-10-25T01:12:54.590Z,964.69
2017-10-25T01:14:48.042Z,964.69
2017-10-25T01:15:48.008Z,964.68
2017-10-25T01:17:41.395Z,964.67
2017-10-25T01:18:41.371Z,964.67
2017-10-25T01:20:34.778Z,964.66
2017-10-25T01:21:34.786Z,964.68
2017-10-25T01:23:29.176Z,964.67
2017-10-25T01:24:29.185Z,964.68
2017-10-25T01:26:22.579Z,964.65
2017-10-25T01:27:22.573Z,964.65
2017-10-25T01:29:16.006Z,964.62
2017-10-25T01:30:15.990Z,964.65
2017-10-25T01:32:09.416Z,964.70
2017-10-25T01:33:09.368Z,964.69
2017-10-25T01:35:02.719Z,964.69
2017-10-25T01:36:02.744Z,964.66
2017-10-25T01:37:56.161Z,964.64
2017-10-25T01:38:56.141Z,964.66
2017-10-25T01:40:49.518Z,964.60
2017-10-25T01:41:49.548Z,964.60
2017-10-25T01:43:43.896Z,964.60
2017-10-25T01:44:43.955Z,964.63
2017-10-25T01:46:37.354Z,964.62
2017-10-25T01:47:37.319Z,964.60
2017-10-25T01:49:30.717Z,964.57
2017-10-25T01:50:30.732Z,964.59
2017-10-25T01:52:24.074Z,964.51
2017-10-25T01:53:24.091Z,964.52
2017-10-25T01:55:17.597Z,964.54
2017-10-25T01:56:17.486Z,964.55
2017-10-25T01:58:10.873Z,964.53
2017-10-25T01:59:10.896Z,964.51
2017-10-25T02:01:04.316Z,964.51
2017-10-25T02:02:04.293Z,964.44
2017-10-25T02:03:57.655Z,964.42
2017-10-25T02:04:57.716Z,964.43
2017-10-25T02:06:51.140Z,964.40
2017-10-25T02:07:51.069Z,964.36
2017-10-25T02:09:44.441Z,964.37
2017-10-25T02:10:44.479Z,964.37
2017-10-25T02:12:37.930Z,964.37
2017-10-25T02:13:37.873Z,964.37
2017-10-25T02:15:31.245Z,964.40
2017-10-25T02:16:31.282Z,964.37
2017-10-25T02:18:24.642Z,964.35
2017-10-25T02:19:24.664Z,964.39
2017-10-25T02:21:18.019Z,964.35
2017-10-25T02:22:18.045Z,964.35
2017-10-25T02:24:12.464Z,964.31
2017-10-25T02:25:12.450Z,964.34
2017-10-25T02:27:05.824Z,964.35
2017-10-25T02:28:05.809Z,964.33
2017-10-25T02:29:59.270Z,964.31
2017-10-25T02:30:59.242Z,964.26
2017-10-25T02:32:52.615Z,964.25
2017-10-25T02:33:52.596Z,964.27
2017-10-25T02:35:46.007Z,964.29
2017-10-25T02:36:45.977Z,964.33
2017-10-25T02:38:39.393Z,964.34
2017-10-25T02:39:39.429Z,964.29
2017-10-25T02:41:32.831Z,964.28
2017-10-25T02:42:32.820Z,964.22
2017-10-25T02:44:26.231Z,964.20
2017-10-25T02:45:26.207Z,964.19
2017-10-25T02:47:19.594Z,964.19
2017-10-25T02:48:19.593Z,964.19
2017-10-25T02:50:12.984Z,964.19
2017-10-25T02:51:12.988Z,964.22
2017-10-25T02:53:06.414Z,964.18
2017-10-25T02:54:06.378Z,964.19
2017-10-25T02:55:59.729Z,964.15
2017-10-25T02:56:59.741Z,964.15
2017-10-25T02:58:53.236Z,964.18
2017-10-25T02:59:53.142Z,964.21
2017-10-25T03:01:46.612Z,964.19
2017-10-25T03:02:46.565Z,964.21
2017-10-25T03:04:40.016Z,964.21
2017-10-25T03:05:39.963Z,964.22
2017-10-25T03:07:33.333Z,964.22
2017-10-25T03:08:33.383Z,964.25
2017-10-25T03:10:26.777Z,964.26
2017-10-25T03:11:26.761Z,964.23
2017-10-25T03:13:21.156Z,964.23
2017-10-25T03:14:21.123Z,964.20
2017-10-25T03:16:14.550Z,964.28
2017-10-25T03:17:14.527Z,964.25
2017-10-25T03:19:07.896Z,964.28
2017-10-25T03:20:07.911Z,964.27
2017-10-25T03:22:01.411Z,964.33
2017-10-25T03:23:01.305Z,964.34
2017-10-25T03:24:54.736Z,964.35
2017-10-25T03:25:54.747Z,964.31
2017-10-25T03:27:49.123Z,964.31
2017-10-25T03:28:49.101Z,964.30
2017-10-25T03:30:42.499Z,964.28
2017-10-25T03:31:42.537Z,964.26
2017-10-25T03:33:35.918Z,964.25
2017-10-25T03:34:35.910Z,964.23
2017-10-25T03:36:29.320Z,964.25
2017-10-25T03:37:29.305Z,964.28
2017-10-25T03:39:22.710Z,964.27
2017-10-25T03:40:22.662Z,964.25
2017-10-25T03:42:16.104Z,964.19
2017-10-25T03:43:16.093Z,964.20
2017-10-25T03:45:09.590Z,964.27
2017-10-25T03:46:09.473Z,964.22
2017-10-25T03:48:02.867Z,964.25
2017-10-25T03:49:02.875Z,964.23
2017-10-25T03:50:56.335Z,964.29
2017-10-25T03:51:56.303Z,964.27
2017-10-25T03:53:49.613Z,964.21
2017-10-25T03:54:49.681Z,964.22
2017-10-25T03:56:43.075Z,964.21
2017-10-25T03:57:43.097Z,964.21
2017-10-25T03:59:36.448Z,964.21
2017-10-25T04:00:36.448Z,964.21
2017-10-25T04:02:30.834Z,964.21
2017-10-25T04:03:38.479Z,964.21
2017-10-25T04:05:31.880Z,964.18
2017-10-25T04:06:31.900Z,964.17
2017-10-25T04:08:26.274Z,964.24
2017-10-25T04:09:17.644Z,964.17
2017-10-25T04:11:11.049Z,964.13
2017-10-25T04:12:11.083Z,964.10
2017-10-25T04:14:05.502Z,964.08
2017-10-25T04:15:05.488Z,964.10
2017-10-25T04:16:59.422Z,964.03
2017-10-25T04:17:58.893Z,964.08
2017-10-25T04:19:52.253Z,964.08
2017-10-25T04:21:00.815Z,964.12
2017-10-25T04:22:54.741Z,964.14
2017-10-25T04:23:46.634Z,964.15
2017-10-25T04:25:48.605Z,964.13
2017-10-25T04:26:40.023Z,964.08
2017-10-25T04:28:34.424Z,964.05
2017-10-25T04:29:34.467Z,964.10
2017-10-25T04:31:27.867Z,964.07
2017-10-25T04:32:27.910Z,964.11
2017-10-25T04:34:22.177Z,964.15
2017-10-25T04:35:22.256Z,964.11
2017-10-25T04:37:16.806Z,964.08
2017-10-25T04:38:24.310Z,964.05
2017-10-25T04:40:18.120Z,964.09
2017-10-25T04:41:20.733Z,964.10
2017-10-25T04:43:13.182Z,964.11
2017-10-25T04:44:13.186Z,964.09
2017-10-25T04:45:57.899Z,964.05
2017-10-25T04:47:06.687Z,964.06
2017-10-25T04:48:51.333Z,964.07
2017-10-25T04:49:51.367Z,964.09
2017-10-25T04:55:31.014Z,964.01
2017-10-25T04:56:23.259Z,964.03
2017-10-25T04:58:16.696Z,964.04
2017-10-25T04:59:16.651Z,964.02
2017-10-25T05:01:19.885Z,964.02
2017-10-25T05:02:11.070Z,964.03
2017-10-25T05:04:13.214Z,964.04
2017-10-25T05:05:04.511Z,964.01
2017-10-25T05:07:06.990Z,964.05
2017-10-25T05:07:58.415Z,964.02
2017-10-25T05:09:52.864Z,964.01
2017-10-25T05:11:02.379Z,963.99
2017-10-25T05:12:46.190Z,964.01
2017-10-25T05:13:53.929Z,964.02
2017-10-25T05:15:40.662Z,963.97
2017-10-25T05:16:40.667Z,964.00
2017-10-25T05:18:35.007Z,963.92
2017-10-25T05:19:35.076Z,963.90
2017-10-25T05:21:29.353Z,963.86
2017-10-25T05:22:29.361Z,963.88
2017-10-25T05:24:23.801Z,963.89
2017-10-25T05:25:33.424Z,963.87
2017-10-25T05:27:17.271Z,963.87
2017-10-25T05:28:17.224Z,963.84
2017-10-25T05:30:11.697Z,963.85
2017-10-25T05:31:19.284Z,963.90
2017-10-25T05:33:04.993Z,963.89
2017-10-25T05:34:05.018Z,963.93
2017-10-25T05:35:58.532Z,963.92
2017-10-25T05:36:58.489Z,963.85
2017-10-25T05:38:53.868Z,963.94
2017-10-25T05:39:53.894Z,963.94
2017-10-25T05:41:48.332Z,963.94
2017-10-25T05:42:48.309Z,963.91
2017-10-25T05:44:41.697Z,963.90
2017-10-25T05:45:50.347Z,963.91
2017-10-25T05:47:35.147Z,963.94
2017-10-25T05:48:42.750Z,963.98
2017-10-25T05:50:37.225Z,964.00
2017-10-25T05:51:29.529Z,964.00
2017-10-25T05:53:23.956Z,963.97
2017-10-25T05:54:32.596Z,963.98
2017-10-25T05:56:17.432Z,963.98
2017-10-25T05:57:26.046Z,963.99
2017-10-25T05:59:10.797Z,964.03
2017-10-25T06:00:10.772Z,964.07
2017-10-25T06:02:06.160Z,964.10
2017-10-25T06:03:06.244Z,964.09
2017-10-25T06:04:59.676Z,964.15
2017-10-25T06:05:59.558Z,964.18
2017-10-25T06:07:54.046Z,964.26
2017-10-25T06:08:54.027Z,964.23
2017-10-25T06:10:47.391Z,964.24
2017-10-25T06:11:47.380Z,964.23
2017-10-25T06:13:40.780Z,964.18
2017-10-25T06:14:40.730Z,964.19
2017-10-25T06:16:35.164Z,964.28
2017-10-25T06:17:35.255Z,964.27
2017-10-25T06:19:29.619Z,964.19
2017-10-25T06:20:29.591Z,964.17
2017-10-25T06:22:23.024Z,964.22
2017-10-25T06:23:23.043Z,964.21
2017-10-25T06:25:16.476Z,964.16
2017-10-25T06:26:24.088Z,964.21
2017-10-25T06:28:09.863Z,964.20
2017-10-25T06:29:09.780Z,964.19
2017-10-25T06:31:12.012Z,964.16
2017-10-25T06:32:03.276Z,964.14
2017-10-25T06:33:56.651Z,964.23
2017-10-25T06:34:56.660Z,964.26
2017-10-25T06:36:51.070Z,964.33
2017-10-25T06:37:51.066Z,964.36
2017-10-25T06:39:45.494Z,964.44
2017-10-25T06:40:45.532Z,964.43
2017-10-25T06:42:48.568Z,964.42
2017-10-25T06:43:39.879Z,964.40
2017-10-25T06:45:42.065Z,964.40
2017-10-25T06:46:33.322Z,964.44
2017-10-25T06:48:26.773Z,964.47
2017-10-25T06:49:26.767Z,964.47
2017-10-25T06:51:20.172Z,964.47
2017-10-25T06:52:27.799Z,964.47
2017-10-25T06:54:13.167Z,964.52
2017-10-25T06:55:13.182Z,964.52
2017-10-25T06:57:07.701Z,964.57
2017-10-25T06:58:07.545Z,964.57
2017-10-25T07:00:00.931Z,964.59
2017-10-25T07:01:00.955Z,964.62
2017-10-25T07:02:54.442Z,964.66
2017-10-25T07:04:01.991Z,964.64
2017-10-25T07:05:48.732Z,964.67
2017-10-25T07:06:48.751Z,964.67
2017-10-25T07:08:49.899Z,964.67
2017-10-25T07:09:42.167Z,964.68
2017-10-25T07:11:35.594Z,964.66
2017-10-25T07:12:35.594Z,964.67
2017-10-25T07:14:28.995Z,964.63
2017-10-25T07:15:29.026Z,964.68
2017-10-25T07:17:32.092Z,964.68
2017-10-25T07:18:22.382Z,964.65
2017-10-25T07:20:15.826Z,964.62
2017-10-25T07:21:15.794Z,964.65
2017-10-25T07:23:18.817Z,964.80
2017-10-25T07:24:10.243Z,964.81
2017-10-25T07:26:04.703Z,964.67
2017-10-25T07:27:13.273Z,964.66
2017-10-25T07:28:58.062Z,964.71
2017-10-25T07:29:58.089Z,964.74
2017-10-25T07:31:51.503Z,964.69
2017-10-25T07:32:51.462Z,964.70
2017-10-25T07:34:44.908Z,964.73
2017-10-25T07:35:53.511Z,964.78
2017-10-25T07:37:48.099Z,964.80
2017-10-25T07:38:39.285Z,964.84
2017-10-25T07:40:32.636Z,964.81
2017-10-25T07:41:32.722Z,964.79
2017-10-25T07:43:27.122Z,964.80
2017-10-25T07:44:27.092Z,964.79
2017-10-25T07:46:21.469Z,964.79
2017-10-25T07:47:21.523Z,964.79
2017-10-25T07:49:15.978Z,964.86
2017-10-25T07:50:15.974Z,964.88
2017-10-25T07:52:10.321Z,964.85
2017-10-25T07:53:10.230Z,964.88
2017-10-25T07:55:06.267Z,964.89
2017-10-25T07:56:06.281Z,964.91
2017-10-25T07:58:00.669Z,964.89
2017-10-25T07:59:00.582Z,964.86
2017-10-25T08:00:54.133Z,964.82
2017-10-25T08:01:54.031Z,964.79
2017-10-25T08:03:56.173Z,964.75
2017-10-25T08:04:48.472Z,964.78
2017-10-25T08:06:41.879Z,964.79
2017-10-25T08:07:41.864Z,964.79
2017-10-25T08:09:35.833Z,964.81
2017-10-25T08:10:45.386Z,964.78
2017-10-25T08:12:29.204Z,964.82
2017-10-25T08:13:29.200Z,964.85
2017-10-25T08:15:23.650Z,964.81
2017-10-25T08:16:31.275Z,964.80
2017-10-25T08:18:26.598Z,964.85
2017-10-25T08:19:18.147Z,964.88
2017-10-25T08:21:11.423Z,964.89
2017-10-25T08:22:11.495Z,964.90
2017-10-25T08:24:04.811Z,964.92
2017-10-25T08:25:04.908Z,964.89
2017-10-25T08:26:58.239Z,964.86
2017-10-25T08:27:58.247Z,964.84
2017-10-25T08:29:52.639Z,964.88
2017-10-25T08:30:52.641Z,964.90
2017-10-25T08:32:46.256Z,964.98
2017-10-25T08:33:46.101Z,965.00
2017-10-25T08:35:40.437Z,964.99
2017-10-25T08:36:40.397Z,965.01
2017-10-25T08:38:33.797Z,965.05
2017-10-25T08:39:33.982Z,965.04
2017-10-25T08:41:27.319Z,965.03
2017-10-25T08:42:27.329Z,965.05
2017-10-25T08:44:20.646Z,965.06
2017-10-25T08:45:20.683Z,965.09
2017-10-25T08:47:14.032Z,965.09
2017-10-25T08:48:14.024Z,965.16
2017-10-25T08:50:07.442Z,965.18
2017-10-25T08:51:07.441Z,965.17
2017-10-25T08:53:01.049Z,965.17
2017-10-25T08:54:00.858Z,965.15
2017-10-25T08:55:55.465Z,965.15
2017-10-25T08:56:55.266Z,965.10
2017-10-25T08:58:48.744Z,965.14
2017-10-25T08:59:48.686Z,965.12
2017-10-25T09:01:42.129Z,965.11
2017-10-25T09:02:49.748Z,965.11
2017-10-25T09:04:35.462Z,965.07
2017-10-25T09:05:35.494Z,965.08
2017-10-25T09:07:29.911Z,965.07
2017-10-25T09:08:29.925Z,965.09
2017-10-25T09:10:23.380Z,965.08
2017-10-25T09:11:23.339Z,965.11
2017-10-25T09:13:16.839Z,965.19
2017-10-25T09:14:16.750Z,965.19
2017-10-25T09:16:10.306Z,965.17
2017-10-25T09:17:10.215Z,965.22
2017-10-25T09:19:05.797Z,965.25
2017-10-25T09:20:05.636Z,965.23
2017-10-25T09:21:59.049Z,965.23
2017-10-25T09:23:06.819Z,965.24
2017-10-25T09:24:52.454Z,965.17
2017-10-25T09:26:02.077Z,965.23
2017-10-25T09:27:45.969Z,965.20
2017-10-25T09:28:45.875Z,965.24
2017-10-25T09:30:39.347Z,965.16
2017-10-25T09:31:46.982Z,965.12
2017-10-25T09:33:32.780Z,965.14
2017-10-25T09:34:32.788Z,965.17
2017-10-25T09:36:27.156Z,965.09
2017-10-25T09:37:35.838Z,965.14
2017-10-25T09:39:22.670Z,965.13
2017-10-25T09:40:32.199Z,965.13
2017-10-25T09:42:16.092Z,965.18
2017-10-25T09:43:16.038Z,965.17
2017-10-25T09:45:10.470Z,965.15
2017-10-25T09:46:10.461Z,965.19
2017-10-25T09:48:03.863Z,965.22
2017-10-25T09:49:03.851Z,965.24
2017-10-25T09:50:57.239Z,965.29
2017-10-25T09:51:57.229Z,965.32
2017-10-25T09:53:50.679Z,965.26
2017-10-25T09:54:50.784Z,965.28
2017-10-25T09:56:53.112Z,965.29
2017-10-25T09:57:45.062Z,965.29
2017-10-25T09:59:38.563Z,965.21
2017-10-25T10:00:48.184Z,965.22
2017-10-25T10:02:31.951Z,965.17
2017-10-25T10:03:39.661Z,965.17
2017-10-25T10:05:25.410Z,965.11
2017-10-25T10:06:32.992Z,965.17
2017-10-25T10:08:26.821Z,965.18
2017-10-25T10:09:18.822Z,965.20
2017-10-25T10:11:13.237Z,965.15
2017-10-25T10:12:21.958Z,965.22
2017-10-25T10:14:07.706Z,965.23
2017-10-25T10:15:15.287Z,965.16
2017-10-25T10:17:09.359Z,965.15
2017-10-25T10:18:02.098Z,965.15
2017-10-25T10:19:56.488Z,965.03
2017-10-25T10:21:06.190Z,965.00
2017-10-25T10:22:49.916Z,964.98
2017-10-25T10:23:57.603Z,965.06
2017-10-25T10:25:43.459Z,965.02
2017-10-25T10:26:43.429Z,965.04
2017-10-25T10:28:37.823Z,964.95
2017-10-25T10:29:46.569Z,965.11
2017-10-25T10:31:32.298Z,965.23
2017-10-25T10:32:32.218Z,965.25
2017-10-25T10:34:34.278Z,965.42
2017-10-25T10:35:35.840Z,965.37
2017-10-25T10:37:20.184Z,965.35
2017-10-25T10:38:28.779Z,965.31
2017-10-25T10:40:14.515Z,965.27
2017-10-25T10:41:24.160Z,965.48
2017-10-25T10:43:07.917Z,965.10
2017-10-25T10:44:17.506Z,965.02
2017-10-25T10:46:01.431Z,965.06
2017-10-25T10:47:01.349Z,965.11
2017-10-25T10:48:54.817Z,965.13
2017-10-25T10:49:54.834Z,965.07
2017-10-25T10:51:49.169Z,965.23
2017-10-25T10:52:49.197Z,965.44
2017-10-25T10:54:43.639Z,965.31
2017-10-25T10:55:43.632Z,965.41
2017-10-25T10:57:44.655Z,965.19
2017-10-25T10:58:37.108Z,965.16
2017-10-25T11:00:30.995Z,965.34
2017-10-25T11:01:38.130Z,965.24
2017-10-25T11:03:24.909Z,965.39
2017-10-25T11:04:33.595Z,965.34
2017-10-25T11:06:26.048Z,965.31
2017-10-25T11:07:18.302Z,965.26
2017-10-25T11:09:12.783Z,965.07
2017-10-25T11:10:22.328Z,965.06
2017-10-25T11:12:06.283Z,965.14
2017-10-25T11:13:14.883Z,965.46
2017-10-25T11:14:59.602Z,965.31
2017-10-25T11:15:59.604Z,965.32
2017-10-25T11:17:54.066Z,965.20
2017-10-25T11:19:03.753Z,965.03
2017-10-25T11:20:48.454Z,964.77
2017-10-25T11:21:57.070Z,964.82
2017-10-25T11:23:51.102Z,965.15
2017-10-25T11:24:49.200Z,965.08
2017-10-25T11:26:45.182Z,965.13
2017-10-25T11:27:46.056Z,965.12
2017-10-25T11:29:30.840Z,964.97
2017-10-25T11:30:30.839Z,964.98
2017-10-25T11:32:33.897Z,964.93
2017-10-25T11:33:33.804Z,964.89
2017-10-25T11:35:18.708Z,964.82
2017-10-25T11:36:27.268Z,964.82
2017-10-25T11:38:12.107Z,964.71
2017-10-25T11:39:12.156Z,964.69
2017-10-25T11:41:06.626Z,964.81
2017-10-25T11:42:15.121Z,964.81
2017-10-25T11:44:00.956Z,964.82
2017-10-25T11:45:00.975Z,964.90
2017-10-25T11:46:54.474Z,964.86
2017-10-25T11:47:54.505Z,964.90
2017-10-25T11:49:48.795Z,964.86
2017-10-25T11:50:48.858Z,964.87
2017-10-25T11:52:50.827Z,964.91
2017-10-25T11:53:42.235Z,964.89
2017-10-25T11:55:35.602Z,964.85
2017-10-25T11:56:35.611Z,964.91
2017-10-25T11:58:39.211Z,964.91
2017-10-25T11:59:30.079Z,964.88
2017-10-25T12:01:23.401Z,964.69
2017-10-25T12:02:23.524Z,964.88
2017-10-25T12:04:18.162Z,964.90
2017-10-25T12:05:18.212Z,964.66
2017-10-25T12:07:12.536Z,964.94
2017-10-25T12:08:12.583Z,964.92
2017-10-25T12:10:07.081Z,964.81
2017-10-25T12:11:06.965Z,964.56
2017-10-25T12:13:01.372Z,964.85
2017-10-25T12:14:08.971Z,964.90
2017-10-25T12:15:54.787Z,964.93
2017-10-25T12:17:02.439Z,964.81
2017-10-25T12:18:48.205Z,964.76
2017-10-25T12:19:48.307Z,964.51
2017-10-25T12:21:41.670Z,964.62
2017-10-25T12:22:50.334Z,964.59
2017-10-25T12:24:35.156Z,964.48
2017-10-25T12:25:35.207Z,964.52
2017-10-25T12:27:30.611Z,964.55
2017-10-25T12:28:30.577Z,964.64
2017-10-25T12:30:24.972Z,964.69
2017-10-25T12:31:24.971Z,964.65
2017-10-25T12:33:19.463Z,964.21
2017-10-25T12:34:19.415Z,964.29
2017-10-25T12:36:14.799Z,964.59
2017-10-25T12:37:14.848Z,964.71
2017-10-25T12:39:09.270Z,964.66
2017-10-25T12:40:09.283Z,964.61
2017-10-25T12:42:10.354Z,964.64
2017-10-25T12:43:02.697Z,964.58
2017-10-25T12:45:03.771Z,964.52
2017-10-25T12:45:56.168Z,964.50
2017-10-25T12:47:50.526Z,964.44
2017-10-25T12:48:58.103Z,964.37
2017-10-25T12:50:55.727Z,964.42
2017-10-25T12:51:55.516Z,964.41
2017-10-25T12:53:41.361Z,964.38
2017-10-25T12:54:50.087Z,964.39
2017-10-25T12:56:35.801Z,964.40
2017-10-25T12:57:35.779Z,964.39
2017-10-25T12:59:37.862Z,964.39
2017-10-25T13:00:36.832Z,964.40
2017-10-25T13:02:30.315Z,964.31
2017-10-25T13:03:22.694Z,964.31
2017-10-25T13:05:16.099Z,964.28
2017-10-25T13:06:16.084Z,964.27
2017-10-25T13:08:09.556Z,964.25
2017-10-25T13:09:09.560Z,964.26
2017-10-25T13:11:11.662Z,964.28
2017-10-25T13:12:12.497Z,964.29
2017-10-25T13:13:57.415Z,964.30
2017-10-25T13:14:57.349Z,964.33
2017-10-25T13:16:59.870Z,964.34
2017-10-25T13:17:50.783Z,964.31
2017-10-25T13:19:44.258Z,964.37
2017-10-25T13:20:44.225Z,964.38
2017-10-25T13:22:37.756Z,964.34
2017-10-25T13:23:38.504Z,964.34
2017-10-25T13:25:31.374Z,964.34
2017-10-25T13:26:39.926Z,964.32
2017-10-25T13:28:25.027Z,964.30
2017-10-25T13:29:33.483Z,964.32
2017-10-25T13:31:18.154Z,964.25
2017-10-25T13:32:18.171Z,964.21
2017-10-25T13:34:11.589Z,964.17
2017-10-25T13:35:11.593Z,964.17
2017-10-25T13:37:13.959Z,964.10
2017-10-25T13:38:12.833Z,964.05
2017-10-25T13:40:06.334Z,964.09
2017-10-25T13:40:58.749Z,964.04
2017-10-25T13:42:52.088Z,964.06
2017-10-25T13:43:52.168Z,964.10
2017-10-25T13:45:45.591Z,964.04
2017-10-25T13:46:45.634Z,964.02
2017-10-25T13:48:40.001Z,964.03
2017-10-25T13:49:39.998Z,964.06
2017-10-25T13:51:33.473Z,964.05
2017-10-25T13:52:33.440Z,964.03
2017-10-25T13:54:27.452Z,964.04
2017-10-25T13:55:35.472Z,963.98
2017-10-25T13:57:30.570Z,964.04
2017-10-25T13:58:30.684Z,963.95
2017-10-25T14:00:25.380Z,963.93
2017-10-25T14:01:17.330Z,963.93
2017-10-25T14:03:10.768Z,963.92
2017-10-25T14:04:10.830Z,963.92
2017-10-25T14:06:05.126Z,963.88
2017-10-25T14:07:05.092Z,963.90
2017-10-25T14:09:07.343Z,963.86
2017-10-25T14:09:59.552Z,963.89
2017-10-25T14:11:52.578Z,964.01
2017-10-25T14:12:52.568Z,964.01
2017-10-25T14:14:47.110Z,964.05
2017-10-25T14:15:46.948Z,964.09
2017-10-25T14:17:48.074Z,964.18
2017-10-25T14:18:48.970Z,964.18
2017-10-25T14:20:34.861Z,964.05
2017-10-25T14:21:43.429Z,963.96
2017-10-25T14:23:37.924Z,963.84
2017-10-25T14:24:28.308Z,963.83
2017-10-25T14:26:22.598Z,963.80
2017-10-25T14:27:22.633Z,963.80
2017-10-25T14:29:16.111Z,963.85
2017-10-25T14:30:16.093Z,963.84
2017-10-25T14:32:09.419Z,963.91
2017-10-25T14:33:09.488Z,963.91
2017-10-25T14:35:03.992Z,963.95
2017-10-25T14:36:03.874Z,963.95
2017-10-25T14:37:58.313Z,963.91
2017-10-25T14:38:58.328Z,963.97
2017-10-25T14:40:59.454Z,963.93
2017-10-25T14:41:51.722Z,963.94
2017-10-25T14:43:46.153Z,963.93
2017-10-25T14:44:46.198Z,963.95
2017-10-25T14:46:39.578Z,963.97
2017-10-25T14:47:39.607Z,963.95
2017-10-25T14:49:33.037Z,963.98
2017-10-25T14:50:33.101Z,963.98
2017-10-25T14:52:26.541Z,963.94
2017-10-25T14:53:34.115Z,963.92
2017-10-25T14:55:19.953Z,963.93
2017-10-25T14:56:20.008Z,963.91
2017-10-25T14:58:15.297Z,963.81
2017-10-25T14:59:15.359Z,963.81
2017-10-25T15:01:08.639Z,963.76
2017-10-25T15:02:08.818Z,963.70
2017-10-25T15:04:02.172Z,963.69
2017-10-25T15:05:02.205Z,963.71
2017-10-25T15:06:56.608Z,963.70
2017-10-25T15:07:56.637Z,963.68
2017-10-25T15:09:51.114Z,963.69
2017-10-25T15:10:52.146Z,963.69
2017-10-25T15:12:44.403Z,963.68
2017-10-25T15:13:44.536Z,963.74
2017-10-25T15:15:38.937Z,963.76
2017-10-25T15:16:38.856Z,963.76
2017-10-25T15:18:33.349Z,963.80
2017-10-25T15:19:33.270Z,963.82
2017-10-25T15:21:26.664Z,963.90
2017-10-25T15:22:26.724Z,963.88
2017-10-25T15:24:20.147Z,963.90
2017-10-25T15:25:20.064Z,963.90
2017-10-25T15:27:14.543Z,963.88
2017-10-25T15:28:14.650Z,963.88
2017-10-25T15:30:08.118Z,963.93
2017-10-25T15:31:07.965Z,963.97
2017-10-25T15:33:01.413Z,963.95
2017-10-25T15:34:01.406Z,963.93
2017-10-25T15:35:54.810Z,964.00
2017-10-25T15:36:54.810Z,963.98
2017-10-25T15:38:48.238Z,963.96
2017-10-25T15:39:48.208Z,963.95
2017-10-25T15:41:42.676Z,963.93
2017-10-25T15:42:42.625Z,963.95
2017-10-25T15:44:36.061Z,963.99
2017-10-25T15:45:36.089Z,964.01
2017-10-25T15:47:29.470Z,964.03
2017-10-25T15:48:29.540Z,964.03
2017-10-25T15:50:24.054Z,964.02
2017-10-25T15:51:23.957Z,963.99
2017-10-25T15:53:18.374Z,963.95
2017-10-25T15:54:18.397Z,963.93
2017-10-25T15:56:11.812Z,963.91
2017-10-25T15:57:11.757Z,963.90
2017-10-25T15:59:05.208Z,963.92
2017-10-25T16:00:05.188Z,963.90
2017-10-25T16:01:59.634Z,963.91
2017-10-25T16:02:59.622Z,963.91
2017-10-25T16:04:52.960Z,963.98
2017-10-25T16:05:52.991Z,963.95
2017-10-25T16:07:46.442Z,964.00
2017-10-25T16:08:46.449Z,964.03
2017-10-25T16:10:39.760Z,964.09
2017-10-25T16:11:39.866Z,964.07
2017-10-25T16:14:34.260Z,964.08
2017-10-25T16:16:28.739Z,964.10
2017-10-25T16:17:28.705Z,964.14
2017-10-25T16:19:24.189Z,964.11
2017-10-25T16:20:24.193Z,964.11
2017-10-25T16:22:17.458Z,964.06
2017-10-25T16:23:17.602Z,964.06
2017-10-25T16:25:11.895Z,963.99
2017-10-25T16:26:12.020Z,964.03
2017-10-25T16:28:06.322Z,964.04
2017-10-25T16:29:06.330Z,964.00
2017-10-25T16:31:00.159Z,963.97
2017-10-25T16:31:59.743Z,964.00
2017-10-25T16:33:53.096Z,963.95
2017-10-25T16:34:53.128Z,964.00
2017-10-25T16:36:46.608Z,964.02
2017-10-25T16:37:46.932Z,964.05
2017-10-25T16:39:39.929Z,964.10
2017-10-25T16:40:39.992Z,964.14
2017-10-25T16:42:33.305Z,964.09
2017-10-25T16:43:33.406Z,964.11
2017-10-25T16:45:27.725Z,964.15
2017-10-25T16:46:28.041Z,964.13
2017-10-25T16:48:22.504Z,964.17
2017-10-25T16:49:22.203Z,964.15
2017-10-25T16:51:15.610Z,964.18
2017-10-25T16:52:15.583Z,964.15
2017-10-25T16:54:08.959Z,964.16
2017-10-25T16:55:08.978Z,964.17
2017-10-25T16:57:02.389Z,964.18
2017-10-25T16:58:02.393Z,964.17
2017-10-25T16:59:55.807Z,964.22
2017-10-25T17:00:55.808Z,964.26
2017-10-25T17:02:49.227Z,964.27
2017-10-25T17:03:49.228Z,964.30
2017-10-25T17:05:42.665Z,964.37
2017-10-25T17:06:42.654Z,964.37
2017-10-25T17:08:35.996Z,964.47
2017-10-25T17:09:36.030Z,964.50
2017-10-25T17:11:29.553Z,964.54
2017-10-25T17:12:29.462Z,964.55
2017-10-25T17:14:22.836Z,964.55
2017-10-25T17:15:22.840Z,964.53
2017-10-25T17:17:16.250Z,964.56
2017-10-25T17:18:16.277Z,964.54
2017-10-25T17:20:09.670Z,964.55
2017-10-25T17:21:09.691Z,964.54
2017-10-25T17:23:03.045Z,964.55
2017-10-25T17:24:03.060Z,964.55
2017-10-25T17:25:56.463Z,964.55
2017-10-25T17:26:56.488Z,964.59
2017-10-25T17:28:50.870Z,964.62
2017-10-25T17:29:50.854Z,964.61
2017-10-25T17:31:44.320Z,964.64
2017-10-25T17:32:44.348Z,964.62
2017-10-25T17:34:37.746Z,964.59
2017-10-25T17:35:37.704Z,964.60
2017-10-25T17:37:31.052Z,964.59
2017-10-25T17:38:31.104Z,964.55
2017-10-25T17:40:24.504Z,964.59
2017-10-25T17:41:24.510Z,964.59
2017-10-25T17:43:17.882Z,964.58
2017-10-25T17:44:17.877Z,964.56
2017-10-25T17:46:11.294Z,964.49
2017-10-25T17:47:11.299Z,964.48
2017-10-25T17:49:04.696Z,964.52
2017-10-25T17:50:04.694Z,964.56
2017-10-25T17:51:58.101Z,964.55
2017-10-25T17:52:58.118Z,964.54
2017-10-25T17:54:51.520Z,964.54
2017-10-25T17:55:51.509Z,964.55
2017-10-25T17:57:44.933Z,964.57
2017-10-25T17:58:44.933Z,964.59
2017-10-25T18:00:38.412Z,964.60
2017-10-25T18:01:38.413Z,964.60
2017-10-25T18:03:31.831Z,964.61
2017-10-25T18:04:31.865Z,964.62
2017-10-25T18:06:25.189Z,964.59
2017-10-25T18:07:25.206Z,964.61
2017-10-25T18:09:18.744Z,964.58